Time;durP1;ratioP1;P1;durP2;ratioP2;P2;SDS_P1;SDS_P2;PMS_P1;PMS_P2;Temp;Humidity;BMP_temperature;BMP_pressure;BME280_temperature;BME280_humidity;BME280_pressure;Samples;Min_cycle;Max_cycle;Signal;HPM_P1;HPM_P2
2021/07/18 00:01:33;;;;;;;8.05;5.78;;;23.10;99.90;;;;;;5110127;28;20028;-70
2021/07/18 00:03:59;;;;;;;6.93;6.22;;;23.30;99.90;;;;;;5109786;28;20046;-70
2021/07/18 00:06:25;;;;;;;8.60;6.00;;;23.40;99.90;;;;;;5109973;28;20024;-70
2021/07/18 00:08:50;;;;;;;9.23;5.43;;;23.40;99.90;;;;;;5109880;28;20515;-70
2021/07/18 00:11:16;;;;;;;6.10;5.47;;;23.30;99.90;;;;;;5111465;28;20044;-71
2021/07/18 00:13:42;;;;;;;6.93;6.20;;;23.20;99.90;;;;;;5110023;28;20092;-70
2021/07/18 00:16:08;;;;;;;8.70;6.10;;;23.10;99.90;;;;;;5111207;28;20035;-70
2021/07/18 00:18:33;;;;;;;7.50;6.80;;;23.20;99.90;;;;;;5109194;28;20028;-70
2021/07/18 00:20:59;;;;;;;7.70;5.82;;;23.30;99.90;;;;;;5110853;28;20020;-70
2021/07/18 00:23:25;;;;;;;6.18;5.55;;;23.30;99.90;;;;;;5110845;28;20042;-70
2021/07/18 00:25:51;;;;;;;10.73;4.97;;;23.30;99.90;;;;;;5111006;28;20085;-70
2021/07/18 00:28:16;;;;;;;10.35;6.25;;;23.10;99.90;;;;;;5109667;28;20027;-70
2021/07/18 00:30:42;;;;;;;8.20;5.03;;;23.20;99.90;;;;;;5109390;28;20033;-70
2021/07/18 00:33:08;;;;;;;7.15;5.93;;;23.30;99.90;;;;;;5109773;28;20076;-70
2021/07/18 00:35:34;;;;;;;8.65;5.80;;;23.30;99.90;;;;;;5109247;28;20089;-70
2021/07/18 00:38:00;;;;;;;6.65;5.40;;;23.40;99.90;;;;;;5109489;28;20085;-70
2021/07/18 00:40:26;;;;;;;6.43;4.55;;;23.40;99.90;;;;;;5111052;27;20524;-69
2021/07/18 00:42:52;;;;;;;7.45;5.80;;;23.50;99.90;;;;;;5117342;28;20051;-69
2021/07/18 00:45:17;;;;;;;7.00;6.00;;;23.50;99.90;;;;;;5118193;27;20035;-70
2021/07/18 00:47:43;;;;;;;9.80;6.45;;;23.50;99.90;;;;;;5117822;27;20024;-70
2021/07/18 00:50:14;;;;;;;5.97;5.32;;;23.60;99.90;;;;;;5116052;28;20023;-70
2021/07/18 00:52:40;;;;;;;6.20;5.53;;;23.60;99.90;;;;;;5117235;28;20020;-70
2021/07/18 00:55:07;;;;;;;7.32;5.82;;;23.60;99.90;;;;;;5115842;28;20055;-71
2021/07/18 00:57:37;;;;;;;7.05;5.30;;;23.70;99.90;;;;;;5115723;28;20507;-70
2021/07/18 01:00:08;;;;;;;5.82;5.22;;;23.70;99.90;;;;;;5117011;27;20469;-71
2021/07/18 01:02:36;;;;;;;7.15;5.07;;;23.70;99.90;;;;;;5117028;27;20015;-71
2021/07/18 01:05:06;;;;;;;5.57;5.07;;;23.70;99.90;;;;;;5117334;27;20067;-70
2021/07/18 01:07:33;;;;;;;6.25;5.75;;;23.70;99.90;;;;;;5111368;27;20028;-71
2021/07/18 01:09:58;;;;;;;7.50;6.50;;;23.80;99.90;;;;;;5117005;27;20389;-70
2021/07/18 01:12:24;;;;;;;8.15;5.80;;;24.00;99.90;;;;;;5116338;28;20030;-71
2021/07/18 01:14:50;;;;;;;6.35;5.78;;;24.10;99.90;;;;;;5115713;28;20127;-71
2021/07/18 01:17:17;;;;;;;6.93;6.22;;;24.20;99.90;;;;;;5116820;27;20065;-70
2021/07/18 01:19:42;;;;;;;5.38;4.88;;;24.20;99.90;;;;;;5116852;27;20481;-70
2021/07/18 01:22:08;;;;;;;8.23;5.68;;;24.20;99.90;;;;;;5115709;28;20035;-71
2021/07/18 01:24:34;;;;;;;6.28;5.68;;;24.10;99.90;;;;;;5115563;28;20020;-71
2021/07/18 01:27:03;;;;;;;7.15;5.13;;;24.10;99.90;;;;;;5115694;28;20046;-70
2021/07/18 01:29:31;;;;;;;11.35;6.28;;;24.10;99.90;;;;;;5116984;27;20386;-72
2021/07/18 01:31:58;;;;;;;9.80;7.93;;;24.10;99.90;;;;;;5115434;28;20032;-70
2021/07/18 01:34:24;;;;;;;6.30;5.70;;;24.20;99.90;;;;;;5115846;28;20419;-71
2021/07/18 01:36:56;;;;;;;7.55;6.68;;;24.20;99.90;;;;;;5115603;28;20054;-70
2021/07/18 01:39:23;;;;;;;8.88;7.47;;;24.20;99.90;;;;;;5116602;28;20026;-71
2021/07/18 01:41:54;;;;;;;9.23;7.68;;;24.20;99.90;;;;;;5117199;27;20072;-73
2021/07/18 01:44:22;;;;;;;8.50;6.53;;;24.40;99.90;;;;;;5115683;28;20031;-70
2021/07/18 01:46:49;;;;;;;8.95;8.05;;;24.40;99.90;;;;;;5117014;27;20095;-71
2021/07/18 01:49:14;;;;;;;6.65;6.05;;;24.40;99.90;;;;;;5115521;28;20035;-71
2021/07/18 01:51:40;;;;;;;11.40;7.45;;;24.40;99.90;;;;;;5114667;28;20031;-71
2021/07/18 01:54:08;;;;;;;7.72;6.70;;;24.40;99.90;;;;;;5111775;28;20084;-72
2021/07/18 01:56:34;;;;;;;9.35;6.82;;;24.40;99.90;;;;;;5112402;28;20027;-71
2021/07/18 01:59:00;;;;;;;7.70;6.90;;;24.40;99.90;;;;;;5112108;28;20022;-71
2021/07/18 02:01:28;;;;;;;7.72;7.05;;;24.50;99.90;;;;;;5113873;28;20096;-71
2021/07/18 02:03:55;;;;;;;9.20;6.82;;;24.70;99.90;;;;;;5113291;28;20600;-71
2021/07/18 02:06:25;;;;;;;10.80;7.55;;;24.80;99.90;;;;;;5112269;28;20141;-71
2021/07/18 02:08:56;;;;;;;9.43;6.80;;;24.80;99.90;;;;;;5113352;28;20019;-71
2021/07/18 02:11:23;;;;;;;9.77;6.63;;;24.90;99.90;;;;;;5113773;28;20047;-71
2021/07/18 02:13:51;;;;;;;8.50;7.15;;;24.80;99.90;;;;;;5112207;28;20534;-71
2021/07/18 02:16:18;;;;;;;11.48;7.75;;;24.80;99.90;;;;;;5111740;28;20027;-71
2021/07/18 02:18:45;;;;;;;8.05;7.00;;;24.90;99.90;;;;;;5113107;28;20031;-71
2021/07/18 02:21:11;;;;;;;10.02;6.30;;;24.90;99.90;;;;;;5112951;28;20019;-71
2021/07/18 02:23:37;;;;;;;7.05;6.50;;;24.90;99.90;;;;;;5113348;28;20387;-71
2021/07/18 02:26:03;;;;;;;7.15;6.55;;;24.90;99.90;;;;;;5112185;28;20385;-70
2021/07/18 02:28:32;;;;;;;8.13;6.47;;;24.90;99.90;;;;;;5112799;28;20034;-70
2021/07/18 02:30:58;;;;;;;10.73;6.72;;;24.80;99.90;;;;;;5111427;28;20024;-71
2021/07/18 02:33:24;;;;;;;7.00;6.45;;;24.80;99.90;;;;;;5112949;28;20032;-71
2021/07/18 02:35:50;;;;;;;7.57;6.88;;;24.70;99.90;;;;;;5111651;28;20031;-70
2021/07/18 02:38:16;;;;;;;7.22;6.57;;;24.60;99.90;;;;;;5112737;28;20016;-71
2021/07/18 02:40:42;;;;;;;7.57;6.88;;;24.50;99.90;;;;;;5111267;28;20495;-71
2021/07/18 02:43:07;;;;;;;8.10;7.18;;;24.40;99.90;;;;;;5111310;28;20027;-71
2021/07/18 02:45:33;;;;;;;8.82;6.30;;;24.30;99.90;;;;;;5111029;28;20472;-70
2021/07/18 02:47:59;;;;;;;9.20;6.28;;;24.20;99.90;;;;;;5111099;28;20030;-71
2021/07/18 02:50:27;;;;;;;9.05;7.28;;;24.10;99.90;;;;;;5112990;28;20107;-71
2021/07/18 02:52:53;;;;;;;7.03;5.63;;;24.00;99.90;;;;;;5111613;28;20512;-70
2021/07/18 02:55:19;;;;;;;8.27;6.28;;;24.00;99.90;;;;;;5112660;28;20119;-71
2021/07/18 02:57:45;;;;;;;7.07;6.45;;;24.00;99.90;;;;;;5111051;28;20347;-69
2021/07/18 03:00:14;;;;;;;6.55;5.95;;;24.00;99.90;;;;;;5111305;28;20079;-69
2021/07/18 03:02:43;;;;;;;11.57;7.47;;;24.00;99.90;;;;;;5112143;28;20034;-70
2021/07/18 03:05:10;;;;;;;7.18;6.57;;;23.90;99.90;;;;;;5111850;28;20023;-71
2021/07/18 03:07:37;;;;;;;9.90;6.97;;;23.90;99.90;;;;;;5105723;28;20032;-70
2021/07/18 03:10:04;;;;;;;7.63;6.93;;;23.90;99.90;;;;;;5109245;28;20122;-70
2021/07/18 03:12:31;;;;;;;8.65;7.53;;;23.80;99.90;;;;;;5110550;28;20237;-72
2021/07/18 03:14:58;;;;;;;9.32;6.75;;;23.70;99.90;;;;;;5110560;28;20038;-70
2021/07/18 03:17:24;;;;;;;8.15;7.45;;;23.90;99.90;;;;;;5110369;28;20020;-70
2021/07/18 03:19:51;;;;;;;8.40;7.65;;;24.20;99.90;;;;;;5110671;28;20652;-70
2021/07/18 03:22:17;;;;;;;9.00;7.75;;;24.30;99.90;;;;;;5111924;28;20016;-70
2021/07/18 03:24:42;;;;;;;7.47;6.78;;;24.20;99.90;;;;;;5111996;27;20110;-70
2021/07/18 03:27:08;;;;;;;10.07;7.60;;;24.20;99.90;;;;;;5110670;28;20035;-70
2021/07/18 03:29:34;;;;;;;7.82;7.10;;;24.10;99.90;;;;;;5111940;28;20024;-70
2021/07/18 03:32:00;;;;;;;11.80;8.23;;;24.10;99.90;;;;;;5112045;28;20026;-70
2021/07/18 03:34:26;;;;;;;8.45;6.68;;;24.10;99.90;;;;;;5110298;28;20031;-70
2021/07/18 03:36:51;;;;;;;10.43;7.63;;;24.20;99.90;;;;;;5110301;28;20438;-71
2021/07/18 03:39:17;;;;;;;10.73;8.45;;;24.20;99.90;;;;;;5110262;28;20434;-72
2021/07/18 03:41:43;;;;;;;8.35;7.57;;;24.20;99.90;;;;;;5110207;28;20164;-71
2021/07/18 03:44:11;;;;;;;10.70;7.00;;;24.20;99.90;;;;;;5111475;28;20023;-71
2021/07/18 03:46:37;;;;;;;11.85;7.28;;;24.30;99.90;;;;;;5111511;28;20102;-70
2021/07/18 03:49:05;;;;;;;7.40;6.55;;;24.40;99.90;;;;;;5109783;28;20134;-71
2021/07/18 03:51:31;;;;;;;10.18;6.70;;;24.30;99.90;;;;;;5109916;28;20051;-71
2021/07/18 03:53:57;;;;;;;8.65;7.75;;;24.40;99.90;;;;;;5111251;28;20066;-71
2021/07/18 03:56:23;;;;;;;12.45;8.25;;;24.40;99.90;;;;;;5111023;28;20050;-71
2021/07/18 03:58:52;;;;;;;7.20;6.60;;;24.40;99.90;;;;;;5109905;28;20042;-70
2021/07/18 04:01:19;;;;;;;7.72;6.85;;;24.40;99.90;;;;;;5111005;28;20475;-71
2021/07/18 04:03:47;;;;;;;9.00;7.88;;;24.50;99.90;;;;;;5110998;28;20385;-70
2021/07/18 04:06:17;;;;;;;7.78;6.97;;;24.50;99.90;;;;;;5109671;28;20026;-70
2021/07/18 04:08:42;;;;;;;8.65;7.20;;;24.50;99.90;;;;;;5110922;28;20024;-70
2021/07/18 04:11:10;;;;;;;8.60;7.72;;;24.50;99.90;;;;;;5110930;27;20042;-70
2021/07/18 04:13:36;;;;;;;10.35;7.60;;;24.40;99.90;;;;;;5109429;28;20027;-70
2021/07/18 04:16:03;;;;;;;8.57;7.30;;;24.40;99.90;;;;;;5110321;28;20099;-70
2021/07/18 04:18:29;;;;;;;11.23;8.43;;;24.50;99.90;;;;;;5110485;28;20035;-69
2021/07/18 04:20:55;;;;;;;8.05;6.97;;;24.50;99.90;;;;;;5109779;28;20574;-71
2021/07/18 04:23:23;;;;;;;8.35;7.55;;;24.50;99.90;;;;;;5111141;28;20032;-70
2021/07/18 04:25:49;;;;;;;8.60;7.75;;;24.60;99.90;;;;;;5110903;28;20038;-71
2021/07/18 04:28:14;;;;;;;7.60;6.97;;;24.60;99.90;;;;;;5109315;28;20020;-70
2021/07/18 04:30:41;;;;;;;11.50;9.70;;;24.70;99.90;;;;;;5110759;28;20533;-71
2021/07/18 04:33:07;;;;;;;6.47;5.85;;;24.60;99.90;;;;;;5111463;28;20110;-71
2021/07/18 04:35:33;;;;;;;9.57;8.02;;;24.70;99.90;;;;;;5110703;28;20035;-71
2021/07/18 04:37:58;;;;;;;11.02;8.05;;;24.70;99.90;;;;;;5109201;28;20043;-71
2021/07/18 04:40:26;;;;;;;7.68;6.97;;;24.80;99.90;;;;;;5109963;28;20023;-71
2021/07/18 04:42:53;;;;;;;9.20;7.43;;;24.80;99.90;;;;;;5109226;28;20102;-71
2021/07/18 04:45:18;;;;;;;9.20;7.03;;;24.80;99.90;;;;;;5109197;28;20042;-70
2021/07/18 04:47:54;;;;;;;8.48;6.65;;;24.80;99.90;;;;;;5108826;28;20036;-71
2021/07/18 04:50:23;;;;;;;9.25;7.53;;;24.80;99.90;;;;;;5109379;28;20488;-71
2021/07/18 04:52:48;;;;;;;8.73;7.88;;;24.80;99.90;;;;;;5109102;28;20024;-70
2021/07/18 04:55:15;;;;;;;9.77;8.35;;;24.80;99.90;;;;;;5110693;28;20446;-71
2021/07/18 04:57:41;;;;;;;7.97;6.80;;;24.80;99.90;;;;;;5110339;28;20024;-71
2021/07/18 05:00:12;;;;;;;7.18;6.53;;;24.80;99.90;;;;;;5110251;28;20354;-70
2021/07/18 05:02:40;;;;;;;7.72;7.03;;;24.80;99.90;;;;;;5109471;28;20019;-71
2021/07/18 05:05:10;;;;;;;10.80;7.70;;;24.80;99.90;;;;;;5109193;28;20241;-71
2021/07/18 05:07:52;;;;;;;8.02;7.22;;;24.80;99.90;;;;;;5109238;28;20023;-72
2021/07/18 05:10:22;;;;;;;;;;;24.90;99.90;;;;;;5106246;28;20035;-71
2021/07/18 05:12:50;;;;;;;7.38;6.55;;;24.90;99.90;;;;;;5108984;28;19904;-72
2021/07/18 05:15:19;;;;;;;8.38;6.88;;;24.80;99.90;;;;;;5110465;28;20048;-71
2021/07/18 05:17:45;;;;;;;8.00;6.65;;;24.90;99.90;;;;;;5108528;28;20035;-71
2021/07/18 05:20:12;;;;;;;6.38;5.88;;;24.90;99.90;;;;;;5110513;28;20080;-71
2021/07/18 05:22:38;;;;;;;6.78;6.18;;;24.90;99.90;;;;;;5108993;28;20103;-71
2021/07/18 05:25:06;;;;;;;6.97;6.10;;;25.00;99.90;;;;;;5108718;28;20167;-71
2021/07/18 05:27:32;;;;;;;11.02;5.95;;;25.00;99.90;;;;;;5111878;28;20096;-70
2021/07/18 05:30:00;;;;;;;8.77;5.65;;;25.00;99.90;;;;;;5113250;28;20028;-70
2021/07/18 05:32:26;;;;;;;6.90;6.30;;;25.00;99.90;;;;;;5112878;28;20098;-71
2021/07/18 05:34:51;;;;;;;8.10;6.32;;;25.00;99.90;;;;;;5112623;28;20123;-70
2021/07/18 05:37:17;;;;;;;7.43;6.40;;;25.00;99.90;;;;;;5113928;28;20035;-70
2021/07/18 05:39:43;;;;;;;9.65;6.65;;;25.10;99.90;;;;;;5112308;28;20518;-70
2021/07/18 05:42:09;;;;;;;7.63;5.50;;;25.10;99.90;;;;;;5112467;28;20022;-71
2021/07/18 05:44:34;;;;;;;6.72;6.13;;;25.10;99.90;;;;;;5112367;28;20030;-71
2021/07/18 05:47:00;;;;;;;7.07;6.13;;;25.00;99.90;;;;;;5112255;28;20074;-71
2021/07/18 05:49:27;;;;;;;11.82;6.30;;;25.10;99.90;;;;;;5111944;28;20080;-70
2021/07/18 05:51:53;;;;;;;10.90;5.45;;;25.00;99.90;;;;;;5113438;28;20072;-72
2021/07/18 05:54:18;;;;;;;6.82;6.05;;;25.00;99.90;;;;;;5112120;28;20130;-70
2021/07/18 05:56:44;;;;;;;13.85;6.85;;;25.00;99.90;;;;;;5112088;28;20496;-70
2021/07/18 05:59:10;;;;;;;6.57;5.80;;;24.90;99.90;;;;;;5113266;28;20027;-70
2021/07/18 06:01:35;;;;;;;7.25;6.45;;;24.90;99.90;;;;;;5113329;28;20385;-72
2021/07/18 06:04:01;;;;;;;6.65;6.03;;;24.80;99.90;;;;;;5113920;28;20016;-71
2021/07/18 06:06:27;;;;;;;9.30;7.05;;;24.80;99.90;;;;;;5112307;28;20031;-71
2021/07/18 06:08:52;;;;;;;7.40;6.70;;;24.80;99.90;;;;;;5113338;28;20031;-71
2021/07/18 06:11:18;;;;;;;8.38;7.60;;;24.70;99.90;;;;;;5112513;28;20423;-71
2021/07/18 06:13:44;;;;;;;8.48;7.78;;;24.80;99.90;;;;;;5111875;28;20035;-71
2021/07/18 06:16:10;;;;;;;13.60;6.93;;;24.80;99.90;;;;;;5113321;28;20389;-72
2021/07/18 06:18:36;;;;;;;7.43;6.82;;;24.80;99.90;;;;;;5111416;28;20028;-71
2021/07/18 06:21:02;;;;;;;9.05;6.68;;;24.70;99.90;;;;;;5113078;28;20500;-74
2021/07/18 06:23:28;;;;;;;8.55;7.57;;;24.70;99.90;;;;;;5113408;28;20481;-71
2021/07/18 06:25:54;;;;;;;9.88;6.53;;;24.80;99.90;;;;;;5111756;28;20068;-71
2021/07/18 06:28:19;;;;;;;14.23;8.23;;;24.70;99.90;;;;;;5112862;28;20059;-71
2021/07/18 06:30:45;;;;;;;8.25;7.55;;;24.70;99.90;;;;;;5111246;28;20051;-71
2021/07/18 06:33:11;;;;;;;9.43;8.35;;;24.80;99.90;;;;;;5111820;28;20024;-71
2021/07/18 06:35:37;;;;;;;10.32;7.90;;;24.80;99.90;;;;;;5111544;28;20035;-70
2021/07/18 06:38:04;;;;;;;11.65;7.15;;;24.80;99.90;;;;;;5110755;28;20049;-72
2021/07/18 06:40:30;;;;;;;10.45;7.68;;;24.90;99.90;;;;;;5112840;28;20015;-71
2021/07/18 06:42:56;;;;;;;9.27;7.70;;;24.90;99.90;;;;;;5113133;28;20488;-70
2021/07/18 06:45:21;;;;;;;7.10;6.40;;;24.90;99.90;;;;;;5111501;28;20027;-71
2021/07/18 06:47:47;;;;;;;9.32;6.22;;;24.80;99.90;;;;;;5112212;28;20030;-75
2021/07/18 06:50:14;;;;;;;10.20;7.68;;;24.80;99.90;;;;;;5112052;28;20111;-71
2021/07/18 06:52:40;;;;;;;8.68;7.88;;;24.80;99.90;;;;;;5112895;28;20069;-71
2021/07/18 06:55:07;;;;;;;10.50;8.88;;;24.90;99.90;;;;;;5112231;28;20024;-73
2021/07/18 06:57:33;;;;;;;9.50;7.70;;;25.00;99.90;;;;;;5112352;28;20111;-72
2021/07/18 06:59:59;;;;;;;14.95;8.57;;;25.00;99.90;;;;;;5112264;28;20023;-71
2021/07/18 07:02:24;;;;;;;9.40;7.47;;;25.20;99.90;;;;;;5113320;28;20027;-72
2021/07/18 07:04:50;;;;;;;8.43;7.68;;;25.30;99.90;;;;;;5113394;28;20028;-71
2021/07/18 07:07:16;;;;;;;6.65;6.05;;;25.30;99.90;;;;;;5113484;28;20028;-72
2021/07/18 07:09:42;;;;;;;6.85;6.25;;;25.10;99.90;;;;;;5104065;28;20032;-73
2021/07/18 07:12:08;;;;;;;8.43;7.47;;;25.00;99.90;;;;;;5111186;28;20024;-72
2021/07/18 07:14:34;;;;;;;7.80;7.20;;;25.00;99.90;;;;;;5112842;28;20426;-72
2021/07/18 07:16:59;;;;;;;7.78;6.80;;;24.90;99.90;;;;;;5111250;28;20517;-73
2021/07/18 07:19:25;;;;;;;7.30;6.57;;;24.80;99.90;;;;;;5111704;28;20408;-72
2021/07/18 07:21:51;;;;;;;10.40;9.23;;;24.70;99.90;;;;;;5112798;28;20149;-73
2021/07/18 07:24:17;;;;;;;10.98;8.15;;;24.60;99.90;;;;;;5112752;27;20135;-72
2021/07/18 07:26:42;;;;;;;7.20;6.43;;;24.30;99.90;;;;;;5111349;28;20627;-72
2021/07/18 07:29:08;;;;;;;7.82;7.03;;;24.00;99.90;;;;;;5112584;28;20023;-73
2021/07/18 07:31:34;;;;;;;6.72;6.13;;;23.90;99.90;;;;;;5111100;28;20072;-73
2021/07/18 07:34:00;;;;;;;9.27;7.70;;;23.80;99.90;;;;;;5112411;28;20046;-72
2021/07/18 07:36:26;;;;;;;7.70;6.63;;;23.80;99.90;;;;;;5111157;28;20152;-72
2021/07/18 07:38:51;;;;;;;8.27;7.25;;;23.70;99.90;;;;;;5110821;28;20026;-71
2021/07/18 07:41:19;;;;;;;9.23;8.45;;;23.60;99.90;;;;;;5112491;28;20110;-71
2021/07/18 07:43:45;;;;;;;8.63;7.60;;;23.40;99.90;;;;;;5111146;28;20024;-73
2021/07/18 07:46:11;;;;;;;8.00;7.30;;;23.40;99.90;;;;;;5112486;28;20110;-72
2021/07/18 07:48:37;;;;;;;9.93;7.32;;;23.60;99.90;;;;;;5112017;28;20044;-71
2021/07/18 07:51:05;;;;;;;7.72;6.65;;;23.70;99.90;;;;;;5109699;28;20031;-71
2021/07/18 07:53:32;;;;;;;10.13;7.90;;;23.80;99.90;;;;;;5112056;28;20030;-72
2021/07/18 07:55:59;;;;;;;8.85;7.47;;;23.90;99.90;;;;;;5111977;28;20140;-72
2021/07/18 07:58:25;;;;;;;8.30;7.47;;;23.90;99.90;;;;;;5112234;28;20487;-73
2021/07/18 08:00:50;;;;;;;9.10;8.07;;;23.90;99.90;;;;;;5111213;28;20114;-72
2021/07/18 08:03:16;;;;;;;10.43;8.60;;;23.90;99.90;;;;;;5110801;28;20402;-72
2021/07/18 08:05:42;;;;;;;9.77;8.75;;;24.00;99.90;;;;;;5111196;28;20079;-73
2021/07/18 08:08:08;;;;;;;8.00;7.30;;;24.00;99.90;;;;;;5112515;28;20054;-72
2021/07/18 08:10:34;;;;;;;8.18;7.35;;;24.10;99.90;;;;;;5112007;28;20374;-70
2021/07/18 08:13:00;;;;;;;11.02;7.85;;;24.10;99.90;;;;;;5111626;28;20027;-73
2021/07/18 08:15:26;;;;;;;11.15;7.25;;;24.20;99.90;;;;;;5111061;28;20111;-71
2021/07/18 08:17:52;;;;;;;8.20;7.50;;;24.30;99.90;;;;;;5109299;28;20045;-72
2021/07/18 08:20:22;;;;;;;9.05;8.25;;;24.50;99.90;;;;;;5111024;28;20065;-71
2021/07/18 08:22:49;;;;;;;7.82;7.18;;;24.60;99.90;;;;;;5109756;28;20015;-72
2021/07/18 08:25:16;;;;;;;8.40;7.60;;;24.90;99.90;;;;;;5109741;28;20034;-71
2021/07/18 08:27:43;;;;;;;10.65;6.88;;;25.20;99.90;;;;;;5110499;28;20028;-72
2021/07/18 08:30:09;;;;;;;8.10;6.80;;;25.70;99.90;;;;;;5112126;28;20032;-71
2021/07/18 08:32:35;;;;;;;7.57;6.72;;;26.10;99.90;;;;;;5111551;28;20027;-71
2021/07/18 08:35:02;;;;;;;8.07;6.28;;;26.40;99.90;;;;;;5110250;28;20080;-70
2021/07/18 08:37:28;;;;;;;6.55;6.03;;;26.90;99.90;;;;;;5110970;28;20020;-71
2021/07/18 08:39:54;;;;;;;6.30;5.80;;;27.40;99.90;;;;;;5111004;28;20019;-72
2021/07/18 08:42:20;;;;;;;7.32;6.55;;;27.60;99.90;;;;;;5110617;28;20020;-71
2021/07/18 08:44:46;;;;;;;6.80;6.10;;;27.80;99.90;;;;;;5110770;28;20078;-72
2021/07/18 08:47:12;;;;;;;11.63;6.35;;;28.00;99.90;;;;;;5110709;28;20521;-72
2021/07/18 08:49:38;;;;;;;7.18;6.53;;;28.00;99.90;;;;;;5110586;28;20020;-72
2021/07/18 08:52:04;;;;;;;7.82;7.13;;;28.10;99.90;;;;;;5110982;28;20035;-73
2021/07/18 08:54:31;;;;;;;6.20;5.68;;;28.10;99.90;;;;;;5109296;28;20027;-71
2021/07/18 08:57:00;;;;;;;8.00;6.97;;;28.20;99.90;;;;;;5110425;28;20080;-71
2021/07/18 08:59:27;;;;;;;9.43;7.20;;;28.20;99.90;;;;;;5110252;28;20024;-72
2021/07/18 09:01:53;;;;;;;7.07;6.25;;;28.10;99.90;;;;;;5111708;28;20096;-71
2021/07/18 09:04:19;;;;;;;11.55;7.70;;;28.10;99.90;;;;;;5114918;28;20072;-72
2021/07/18 09:06:45;;;;;;;8.88;7.97;;;27.90;99.90;;;;;;5115356;28;20115;-72
2021/07/18 09:09:16;;;;;;;9.40;7.63;;;27.90;99.90;;;;;;5114953;28;20051;-72
2021/07/18 09:11:43;;;;;;;11.98;7.97;;;27.90;99.90;;;;;;5105622;28;20032;-71
2021/07/18 09:14:11;;;;;;;7.95;7.22;;;28.00;99.90;;;;;;5114207;28;20102;-71
2021/07/18 09:16:39;;;;;;;9.35;8.43;;;27.90;99.90;;;;;;5112449;28;20024;-72
2021/07/18 09:19:30;;;;;;;11.27;8.18;;;28.10;99.90;;;;;;5112948;28;20390;-72
2021/07/18 09:22:20;;;;;;;8.75;7.03;;;28.30;99.90;;;;;;5112751;28;20023;-70
2021/07/18 09:24:51;;;;;;;14.02;8.35;;;28.30;99.90;;;;;;5114122;28;20028;-71
2021/07/18 09:27:19;;;;;;;;;;;28.20;99.90;;;;;;5114688;28;20034;-71
2021/07/18 09:29:52;;;;;;;8.38;7.65;;;28.30;99.90;;;;;;5114077;28;19957;-71
2021/07/18 09:32:29;;;;;;;7.70;6.93;;;28.30;99.90;;;;;;5114259;28;20047;-71
2021/07/18 09:34:59;;;;;;;10.15;8.60;;;28.50;99.90;;;;;;5114019;28;20030;-73
2021/07/18 09:37:27;;;;;;;9.70;8.63;;;28.80;99.90;;;;;;5112847;28;20023;-71
2021/07/18 09:39:58;;;;;;;12.02;9.23;;;29.10;99.90;;;;;;5113936;28;20377;-72
2021/07/18 09:42:48;;;;;;;9.07;8.20;;;29.30;99.90;;;;;;5112642;28;20027;-71
2021/07/18 09:45:18;;;;;;;8.38;7.78;;;29.50;99.90;;;;;;5113848;28;20027;-72
2021/07/18 09:48:09;;;;;;;9.27;8.20;;;29.40;99.90;;;;;;5113654;28;20432;-72
2021/07/18 09:50:40;;;;;;;9.13;8.18;;;29.50;99.90;;;;;;5112367;28;20027;-71
2021/07/18 09:53:09;;;;;;;;;;;29.50;99.90;;;;;;5114133;28;20481;-72
2021/07/18 09:55:36;;;;;;;9.27;8.40;;;29.40;99.90;;;;;;5113481;28;19953;-71
2021/07/18 09:58:02;;;;;;;11.75;9.77;;;29.30;99.90;;;;;;5113259;28;20023;-71
2021/07/18 10:00:42;;;;;;;9.70;8.38;;;29.30;99.90;;;;;;5112623;28;20080;-72
2021/07/18 10:03:26;;;;;;;8.55;7.75;;;29.30;99.90;;;;;;5113545;28;20105;-71
2021/07/18 10:06:12;;;;;;;8.38;7.68;;;29.10;99.90;;;;;;5111910;28;20057;-72
2021/07/18 10:08:40;;;;;;;10.20;7.90;;;28.90;99.90;;;;;;5112219;28;20107;-73
2021/07/18 10:11:12;;;;;;;9.10;8.20;;;28.80;99.90;;;;;;5113757;28;20023;-72
2021/07/18 10:13:42;;;;;;;9.10;8.32;;;29.00;99.90;;;;;;5112008;28;20443;-71
2021/07/18 10:16:12;;;;;;;10.27;7.97;;;29.30;99.90;;;;;;5113436;28;20028;-71
2021/07/18 10:18:39;;;;;;;9.05;6.25;;;29.40;99.90;;;;;;5115055;28;20040;-72
2021/07/18 10:21:10;;;;;;;6.18;5.57;;;29.10;99.90;;;;;;5114433;27;20028;-72
2021/07/18 10:23:39;;;;;;;6.07;5.57;;;28.90;99.90;;;;;;5114555;28;20035;-72
2021/07/18 10:26:05;;;;;;;7.05;6.40;;;29.20;99.90;;;;;;5113435;28;20031;-72
2021/07/18 10:28:32;;;;;;;9.40;7.07;;;29.70;99.90;;;;;;5114467;28;20031;-71
2021/07/18 10:31:04;;;;;;;7.22;6.53;;;30.30;99.90;;;;;;5114002;28;20030;-72
2021/07/18 10:33:31;;;;;;;6.93;6.28;;;30.60;99.90;;;;;;5111855;28;20548;-71
2021/07/18 10:35:57;;;;;;;9.80;6.57;;;30.70;99.90;;;;;;5113103;28;20107;-72
2021/07/18 10:38:25;;;;;;;12.30;5.57;;;30.80;99.90;;;;;;5111834;28;20069;-72
2021/07/18 10:40:56;;;;;;;6.13;5.63;;;30.30;99.90;;;;;;5114638;28;20035;-71
2021/07/18 10:43:44;;;;;;;7.45;6.18;;;29.80;99.90;;;;;;5112742;28;20369;-72
2021/07/18 10:46:15;;;;;;;7.97;7.35;;;29.90;99.90;;;;;;5112721;28;20031;-72
2021/07/18 10:48:52;;;;;;;10.63;8.52;;;29.80;99.90;;;;;;5113960;28;20024;-71
2021/07/18 10:51:19;;;;;;;10.13;9.13;;;30.00;99.90;;;;;;5113511;28;20092;-72
2021/07/18 10:53:54;;;;;;;9.88;9.07;;;29.80;99.90;;;;;;5112823;28;20026;-71
2021/07/18 10:56:38;;;;;;;10.73;8.70;;;29.60;99.90;;;;;;5113624;28;20103;-72
2021/07/18 10:59:03;;;;;;;10.10;9.00;;;29.50;99.90;;;;;;5111945;28;20030;-72
2021/07/18 11:01:31;;;;;;;13.60;10.25;;;29.30;99.90;;;;;;5111476;28;20447;-71
2021/07/18 11:03:58;;;;;;;12.63;9.63;;;29.40;99.90;;;;;;5113389;28;20042;-75
2021/07/18 11:06:25;;;;;;;11.55;9.10;;;29.30;99.90;;;;;;5112990;28;20087;-71
2021/07/18 11:09:14;;;;;;;11.93;10.73;;;29.20;99.90;;;;;;5112176;28;20571;-72
2021/07/18 11:11:40;;;;;;;10.30;9.40;;;28.90;99.90;;;;;;5103616;28;20023;-71
2021/07/18 11:14:36;;;;;;;9.43;8.35;;;28.70;99.90;;;;;;5110861;28;20027;-71
2021/07/18 11:17:05;;;;;;;8.35;5.97;;;28.20;99.90;;;;;;5110546;28;20024;-71
2021/07/18 11:19:39;;;;;;;5.93;5.32;;;28.00;99.90;;;;;;5110417;28;20575;-70
2021/07/18 11:22:06;;;;;;;6.20;5.60;;;27.70;99.90;;;;;;5111970;28;20024;-72
2021/07/18 11:24:55;;;;;;;7.63;5.80;;;27.50;99.90;;;;;;5111684;28;20024;-71
2021/07/18 11:27:28;;;;;;;7.25;6.55;;;27.30;99.90;;;;;;5111954;28;20027;-73
2021/07/18 11:29:55;;;;;;;7.05;6.55;;;27.40;99.90;;;;;;5110684;28;20027;-72
2021/07/18 11:32:32;;;;;;;7.97;7.25;;;27.50;99.90;;;;;;5110549;28;20047;-72
2021/07/18 11:34:59;;;;;;;6.93;6.32;;;27.30;99.90;;;;;;5112082;28;20015;-72
2021/07/18 11:37:27;;;;;;;9.65;8.10;;;27.10;99.90;;;;;;5110811;28;20084;-72
2021/07/18 11:40:03;;;;;;;7.97;7.20;;;27.10;99.90;;;;;;5111653;28;20026;-71
2021/07/18 11:42:29;;;;;;;10.88;7.78;;;27.20;99.90;;;;;;5111676;28;20031;-73
2021/07/18 11:44:55;;;;;;;8.38;7.57;;;27.00;99.90;;;;;;5110685;28;20024;-71
2021/07/18 11:47:23;;;;;;;8.95;7.93;;;27.00;99.90;;;;;;5110517;28;20055;-72
2021/07/18 11:49:51;;;;;;;7.75;6.88;;;27.00;99.90;;;;;;5111661;28;20031;-71
2021/07/18 11:52:18;;;;;;;7.57;6.88;;;26.90;99.90;;;;;;5110357;28;20485;-71
2021/07/18 11:54:45;;;;;;;9.10;6.68;;;26.80;99.90;;;;;;5111646;28;20032;-71
2021/07/18 11:57:16;;;;;;;10.40;7.03;;;26.60;99.90;;;;;;5110120;28;20635;-71
2021/07/18 11:59:44;;;;;;;9.07;7.03;;;26.40;99.90;;;;;;5109985;28;20027;-72
2021/07/18 12:02:12;;;;;;;7.32;6.63;;;26.40;99.90;;;;;;5111317;28;20028;-71
2021/07/18 12:04:39;;;;;;;6.28;4.88;;;26.40;99.90;;;;;;5109827;28;20500;-72
2021/07/18 12:07:07;;;;;;;5.97;5.47;;;26.00;99.90;;;;;;5111307;28;20027;-72
2021/07/18 12:09:44;;;;;;;11.60;6.22;;;25.80;99.90;;;;;;5111131;27;20170;-72
2021/07/18 12:12:12;;;;;;;6.82;6.30;;;25.80;99.90;;;;;;5111282;27;20477;-72
2021/07/18 12:14:41;;;;;;;10.98;6.85;;;25.80;99.90;;;;;;5111036;28;20047;-72
2021/07/18 12:17:09;;;;;;;6.88;5.70;;;25.30;99.90;;;;;;5110710;28;20058;-71
2021/07/18 12:19:36;;;;;;;5.63;4.82;;;24.90;99.90;;;;;;5111457;28;20020;-72
2021/07/18 12:22:07;;;;;;;5.32;4.93;;;24.40;99.90;;;;;;5109770;28;20648;-71
2021/07/18 12:24:40;;;;;;;6.43;5.82;;;24.10;99.90;;;;;;5111209;28;20024;-71
2021/07/18 12:27:19;;;;;;;6.20;5.70;;;24.00;99.90;;;;;;5111230;28;20050;-73
2021/07/18 12:29:49;;;;;;;7.47;5.53;;;23.80;99.90;;;;;;5111151;28;20052;-72
2021/07/18 12:32:16;;;;;;;6.93;6.25;;;23.60;99.90;;;;;;5110780;28;20020;-71
2021/07/18 12:34:45;;;;;;;7.18;6.20;;;23.30;99.90;;;;;;5109554;28;20030;-72
2021/07/18 12:37:13;;;;;;;7.30;6.60;;;23.20;99.90;;;;;;5108839;28;20062;-70
2021/07/18 12:39:42;;;;;;;11.18;6.95;;;23.00;99.90;;;;;;5109170;28;20497;-71
2021/07/18 12:42:13;;;;;;;7.47;5.95;;;23.00;99.90;;;;;;5111301;28;20020;-73
2021/07/18 12:44:57;;;;;;;7.13;6.43;;;22.90;99.90;;;;;;5110294;28;20085;-72
2021/07/18 12:47:26;;;;;;;9.48;7.75;;;22.80;99.90;;;;;;5112209;28;20024;-72
2021/07/18 12:50:12;;;;;;;7.78;6.88;;;22.60;99.90;;;;;;5111978;28;20043;-74